Time;durP1;ratioP1;P1;durP2;ratioP2;P2;SDS_P1;SDS_P2;PMS_P1;PMS_P2;Temp;Humidity;BMP_temperature;BMP_pressure;BME280_temperature;BME280_humidity;BME280_pressure;Samples;Min_cycle;Max_cycle;Signal;HPM_P1;HPM_P2
2024/04/16 00:00:45;;;;;;;2.92;1.40;;;16.60;99.90;;;;;;5491108;26;20034;-73
2024/04/16 00:03:11;;;;;;;2.33;1.10;;;16.50;99.90;;;;;;5490906;26;20026;-74
2024/04/16 00:05:37;;;;;;;3.10;1.17;;;16.20;99.90;;;;;;5490590;26;20026;-73
2024/04/16 00:08:03;;;;;;;3.20;1.20;;;16.20;99.90;;;;;;5490987;26;20030;-73
2024/04/16 00:10:30;;;;;;;2.55;1.10;;;16.10;99.90;;;;;;5490961;26;20022;-73
2024/04/16 00:12:56;;;;;;;2.05;1.10;;;16.10;99.90;;;;;;5490741;26;20031;-74
2024/04/16 00:15:22;;;;;;;4.95;1.20;;;16.10;99.90;;;;;;5491078;26;20027;-74
2024/04/16 00:17:48;;;;;;;2.40;1.13;;;16.10;99.90;;;;;;5489635;26;20042;-74
2024/04/16 00:20:14;;;;;;;2.42;0.90;;;16.10;99.90;;;;;;5490014;26;20038;-74
2024/04/16 00:22:42;;;;;;;1.15;0.90;;;16.10;99.90;;;;;;5490743;26;20022;-74
2024/04/16 00:25:08;;;;;;;3.53;1.05;;;16.10;99.90;;;;;;5490647;26;20101;-74
2024/04/16 00:27:34;;;;;;;1.52;0.80;;;16.10;99.90;;;;;;5490176;26;20049;-74
2024/04/16 00:30:01;;;;;;;2.92;1.30;;;16.00;99.90;;;;;;5490564;26;20018;-76
2024/04/16 00:32:27;;;;;;;2.20;1.02;;;16.00;99.90;;;;;;5457591;26;20057;-76
2024/04/16 00:36:31;;;;;;;2.25;0.80;;;15.90;99.90;;;;;;5509136;25;20436;-76
2024/04/16 00:38:57;;;;;;;2.55;1.00;;;15.70;99.90;;;;;;5509413;26;20025;-75
2024/04/16 00:41:23;;;;;;;1.23;0.82;;;15.50;99.90;;;;;;5509358;26;20360;-77
2024/04/16 00:43:50;;;;;;;3.40;1.08;;;15.40;99.90;;;;;;5509332;26;20030;-76
2024/04/16 00:46:16;;;;;;;2.83;1.08;;;15.30;99.90;;;;;;5509330;26;20022;-76
2024/04/16 00:48:42;;;;;;;1.27;1.00;;;15.30;99.90;;;;;;5507240;26;20026;-76
2024/04/16 00:51:09;;;;;;;2.35;0.90;;;15.10;99.90;;;;;;5509330;26;20030;-76
2024/04/16 00:53:37;;;;;;;1.70;0.85;;;15.10;99.90;;;;;;5509135;26;20022;-76
2024/04/16 00:56:05;;;;;;;1.40;0.88;;;15.00;99.90;;;;;;5508893;26;20480;-75
2024/04/16 00:58:34;;;;;;;2.65;0.82;;;14.80;99.90;;;;;;5508716;26;20025;-76
2024/04/16 01:01:00;;;;;;;2.67;1.00;;;14.80;99.90;;;;;;5509224;26;20025;-75
2024/04/16 01:03:26;;;;;;;2.63;1.00;;;14.80;99.90;;;;;;5508817;26;20503;-76
2024/04/16 01:05:53;;;;;;;5.20;0.90;;;14.70;99.90;;;;;;5506538;26;20378;-76
2024/04/16 01:08:19;;;;;;;7.47;1.00;;;14.70;99.90;;;;;;5508506;26;20034;-76
2024/04/16 01:10:45;;;;;;;2.58;1.08;;;14.70;99.90;;;;;;5508745;26;20018;-76
2024/04/16 01:13:11;;;;;;;2.20;0.88;;;14.60;99.90;;;;;;5509006;26;20025;-76
2024/04/16 01:15:37;;;;;;;1.77;0.93;;;14.50;99.90;;;;;;5508724;26;20018;-76
2024/04/16 01:18:05;;;;;;;2.35;0.90;;;14.50;99.90;;;;;;5508785;26;20503;-76
2024/04/16 01:20:33;;;;;;;3.30;0.85;;;14.40;99.90;;;;;;5509019;26;20476;-76
2024/04/16 01:22:59;;;;;;;1.27;0.90;;;14.40;99.90;;;;;;5508678;26;20018;-76
2024/04/16 01:25:25;;;;;;;3.05;0.90;;;14.50;99.90;;;;;;5508875;26;20460;-76
2024/04/16 01:27:51;;;;;;;4.03;1.10;;;14.40;99.90;;;;;;5508171;26;20022;-76
2024/04/16 01:30:18;;;;;;;2.30;0.98;;;14.50;99.90;;;;;;5508659;25;20021;-76
2024/04/16 01:32:44;;;;;;;1.33;0.90;;;14.30;99.90;;;;;;5508859;26;20021;-76
2024/04/16 01:35:10;;;;;;;1.83;0.82;;;14.40;99.90;;;;;;5505918;26;20042;-76
2024/04/16 01:37:37;;;;;;;1.95;0.85;;;14.30;99.90;;;;;;5508625;26;20025;-76
2024/04/16 01:40:03;;;;;;;2.45;1.00;;;14.30;99.90;;;;;;5508550;26;20355;-76
2024/04/16 01:42:29;;;;;;;2.92;1.00;;;14.20;99.90;;;;;;5508163;25;20030;-76
2024/04/16 01:44:58;;;;;;;3.42;1.05;;;14.20;99.90;;;;;;5506232;26;20033;-77
2024/04/16 01:47:25;;;;;;;1.75;0.90;;;14.30;99.90;;;;;;5495395;26;20027;-78
2024/04/16 01:49:51;;;;;;;3.35;1.08;;;14.30;99.90;;;;;;5492244;26;20035;-77
2024/04/16 01:52:17;;;;;;;1.58;1.00;;;14.40;99.90;;;;;;5492586;26;20025;-76
2024/04/16 01:54:44;;;;;;;1.60;0.82;;;14.40;99.90;;;;;;5492656;26;20018;-76
2024/04/16 01:57:10;;;;;;;1.17;0.73;;;14.40;99.90;;;;;;5492138;26;20031;-76
2024/04/16 01:59:36;;;;;;;2.38;1.02;;;14.40;99.90;;;;;;5492792;26;20026;-77
2024/04/16 02:02:02;;;;;;;1.33;0.85;;;14.50;99.90;;;;;;5492843;26;20037;-76
2024/04/16 02:04:29;;;;;;;2.00;0.95;;;14.50;99.90;;;;;;5490638;26;20030;-76
2024/04/16 02:06:55;;;;;;;1.35;0.90;;;14.60;99.90;;;;;;5489957;26;20030;-76
2024/04/16 02:09:21;;;;;;;3.15;1.10;;;14.60;99.90;;;;;;5492398;26;20027;-76
2024/04/16 02:11:48;;;;;;;1.98;0.80;;;14.70;99.90;;;;;;5492596;26;20354;-76
2024/04/16 02:14:14;;;;;;;1.35;0.80;;;14.60;99.90;;;;;;5492348;26;20035;-76
2024/04/16 02:16:40;;;;;;;1.20;0.80;;;14.60;99.90;;;;;;5492285;26;20022;-76
2024/04/16 02:19:06;;;;;;;2.85;0.90;;;14.70;99.90;;;;;;5492089;26;20026;-76
2024/04/16 02:21:33;;;;;;;3.55;0.90;;;14.60;99.90;;;;;;5492191;26;20031;-77
2024/04/16 02:23:59;;;;;;;1.75;0.80;;;14.60;99.90;;;;;;5492287;26;20022;-76
2024/04/16 02:26:25;;;;;;;1.65;0.70;;;14.60;99.90;;;;;;5492009;26;20022;-74
2024/04/16 02:28:51;;;;;;;1.42;0.70;;;14.60;99.90;;;;;;5490413;26;20026;-74
2024/04/16 02:31:17;;;;;;;2.78;0.90;;;14.60;99.90;;;;;;5491875;26;20034;-73
2024/04/16 02:33:43;;;;;;;3.00;1.00;;;14.60;99.90;;;;;;5491611;26;20026;-73
2024/04/16 02:36:09;;;;;;;2.40;1.00;;;14.50;99.90;;;;;;5492048;26;20021;-73
2024/04/16 02:38:35;;;;;;;4.68;0.82;;;14.50;99.90;;;;;;5490125;26;20053;-74
2024/04/16 02:41:02;;;;;;;1.35;0.80;;;14.40;99.90;;;;;;5492089;26;20018;-74
2024/04/16 02:43:28;;;;;;;1.45;0.80;;;14.50;99.90;;;;;;5492010;26;20035;-73
2024/04/16 02:45:54;;;;;;;1.20;0.70;;;14.40;99.90;;;;;;5492070;26;20017;-74
2024/04/16 02:48:20;;;;;;;1.20;0.90;;;14.40;99.90;;;;;;5491894;26;20018;-74
2024/04/16 02:50:49;;;;;;;1.70;0.95;;;14.40;99.90;;;;;;5491718;26;20054;-74
2024/04/16 02:53:15;;;;;;;2.25;0.85;;;14.50;99.90;;;;;;5490071;26;20026;-74
2024/04/16 02:55:41;;;;;;;2.55;0.80;;;14.50;99.90;;;;;;5491136;26;20026;-74
2024/04/16 02:58:07;;;;;;;1.88;1.00;;;14.50;99.90;;;;;;5489919;26;20035;-74
2024/04/16 03:00:37;;;;;;;1.85;0.80;;;14.40;99.90;;;;;;5491655;26;20046;-74
2024/04/16 03:03:03;;;;;;;4.05;0.90;;;14.50;99.90;;;;;;5489634;26;20018;-74
2024/04/16 03:05:29;;;;;;;1.42;0.80;;;14.40;99.90;;;;;;5489742;26;20053;-74
2024/04/16 03:07:56;;;;;;;3.22;0.90;;;14.50;99.90;;;;;;5491598;26;20026;-74
2024/04/16 03:10:22;;;;;;;4.20;0.88;;;14.40;99.90;;;;;;5491565;26;20031;-74
2024/04/16 03:12:54;;;;;;;1.08;0.70;;;14.50;99.90;;;;;;5490997;26;20035;-73
2024/04/16 03:15:20;;;;;;;1.98;0.70;;;14.50;99.90;;;;;;5491345;26;20026;-73
2024/04/16 03:17:46;;;;;;;1.90;0.90;;;14.40;99.90;;;;;;5491432;26;20022;-73
2024/04/16 03:20:13;;;;;;;1.92;1.08;;;14.40;99.90;;;;;;5491055;26;20030;-73
2024/04/16 03:22:39;;;;;;;2.35;1.10;;;14.30;99.90;;;;;;5491384;26;20018;-73
2024/04/16 03:25:05;;;;;;;1.67;0.85;;;14.30;99.90;;;;;;5491283;26;20021;-73
2024/04/16 03:27:31;;;;;;;2.20;0.80;;;14.30;99.90;;;;;;5490830;26;20480;-73
2024/04/16 03:29:58;;;;;;;3.33;1.17;;;14.30;99.90;;;;;;5491260;26;20472;-73
2024/04/16 03:32:24;;;;;;;1.75;1.02;;;14.30;99.90;;;;;;5490989;26;20026;-73
2024/04/16 03:34:51;;;;;;;1.60;1.00;;;14.30;99.90;;;;;;5490584;26;20497;-73
2024/04/16 03:37:17;;;;;;;2.05;0.70;;;14.30;99.90;;;;;;5491230;26;20026;-73
2024/04/16 03:39:43;;;;;;;3.78;0.93;;;14.30;99.90;;;;;;5491317;26;20026;-73
2024/04/16 03:42:09;;;;;;;1.80;0.80;;;14.20;99.90;;;;;;5490995;26;20034;-73
2024/04/16 03:44:35;;;;;;;1.38;0.75;;;14.20;99.90;;;;;;5491098;26;20029;-73
2024/04/16 03:47:01;;;;;;;2.13;0.90;;;14.10;99.90;;;;;;5491015;26;20018;-73
2024/04/16 03:49:27;;;;;;;2.03;0.57;;;14.10;99.90;;;;;;5488330;26;20021;-73
2024/04/16 03:51:53;;;;;;;2.13;0.80;;;14.00;99.90;;;;;;5490496;26;20034;-72
2024/04/16 03:54:20;;;;;;;3.30;0.70;;;13.90;99.90;;;;;;5490752;26;20511;-73
2024/04/16 03:56:46;;;;;;;1.42;0.75;;;13.90;99.90;;;;;;5490711;26;20371;-72
2024/04/16 03:59:16;;;;;;;2.28;0.73;;;13.80;99.90;;;;;;5488245;26;20039;-73
2024/04/16 04:01:43;;;;;;;3.60;1.00;;;13.80;99.90;;;;;;5489464;26;20030;-74
2024/04/16 04:04:09;;;;;;;2.00;0.90;;;13.70;99.90;;;;;;5490882;26;20025;-74
2024/04/16 04:06:35;;;;;;;3.00;0.70;;;13.80;99.90;;;;;;5490574;26;20025;-74
2024/04/16 04:09:01;;;;;;;2.58;0.80;;;13.70;99.90;;;;;;5489992;26;20030;-75
2024/04/16 04:11:27;;;;;;;4.63;1.10;;;13.70;99.90;;;;;;5490604;26;20022;-72
2024/04/16 04:13:53;;;;;;;3.75;0.93;;;13.80;99.90;;;;;;5490398;26;20373;-73
2024/04/16 04:16:19;;;;;;;1.90;0.90;;;13.80;99.90;;;;;;5488513;26;20034;-73
2024/04/16 04:18:48;;;;;;;1.10;0.82;;;13.80;99.90;;;;;;5488875;26;20460;-72
2024/04/16 04:21:14;;;;;;;1.10;0.70;;;13.80;99.90;;;;;;5490073;26;20353;-73
2024/04/16 04:23:41;;;;;;;4.22;1.10;;;13.80;99.90;;;;;;5486150;26;20445;-72
2024/04/16 04:26:08;;;;;;;3.83;0.90;;;13.80;99.90;;;;;;5484448;26;20034;-72
2024/04/16 04:28:34;;;;;;;4.03;1.20;;;13.70;99.90;;;;;;5488559;26;20108;-74
2024/04/16 04:31:16;;;;;;;2.42;1.00;;;13.60;99.90;;;;;;5489691;26;20025;-74
2024/04/16 04:33:43;;;;;;;3.80;1.10;;;13.50;99.90;;;;;;5489719;26;20026;-74
2024/04/16 04:36:13;;;;;;;2.75;0.98;;;13.50;99.90;;;;;;5488727;26;20468;-70
2024/04/16 04:38:39;;;;;;;1.17;0.70;;;13.40;99.90;;;;;;5488706;26;20030;-69
2024/04/16 04:41:09;;;;;;;2.45;0.75;;;13.30;99.90;;;;;;5488964;26;20102;-69
2024/04/16 04:43:35;;;;;;;3.40;0.73;;;13.20;99.90;;;;;;5485794;26;20035;-69
2024/04/16 04:46:01;;;;;;;1.08;0.50;;;13.20;99.90;;;;;;5489706;26;20160;-69
2024/04/16 04:48:27;;;;;;;1.23;0.68;;;13.20;99.90;;;;;;5488495;26;20022;-70
2024/04/16 04:50:53;;;;;;;1.48;0.70;;;13.10;99.90;;;;;;5488947;26;20022;-71
2024/04/16 04:53:20;;;;;;;2.03;0.70;;;13.10;99.90;;;;;;5489587;26;20026;-72
2024/04/16 04:55:46;;;;;;;2.70;0.82;;;13.10;99.90;;;;;;5487441;26;20026;-71
2024/04/16 04:58:12;;;;;;;3.60;0.70;;;13.00;99.90;;;;;;5488543;26;20476;-71
2024/04/16 05:00:38;;;;;;;0.68;0.50;;;13.00;99.90;;;;;;5489284;26;20018;-70
2024/04/16 05:03:04;;;;;;;2.60;0.57;;;12.90;99.90;;;;;;5488932;26;20396;-71
2024/04/16 05:05:34;;;;;;;2.05;0.55;;;12.90;99.90;;;;;;5488717;26;20034;-73
2024/04/16 05:08:00;;;;;;;1.20;0.68;;;12.90;99.90;;;;;;5489316;26;20028;-71
2024/04/16 05:10:26;;;;;;;0.45;0.40;;;12.80;99.90;;;;;;5489075;26;20022;-71
2024/04/16 05:12:53;;;;;;;1.77;0.60;;;12.80;99.90;;;;;;5488570;26;20031;-73
2024/04/16 05:15:22;;;;;;;1.13;0.60;;;12.80;99.90;;;;;;5489061;26;20023;-74
2024/04/16 05:17:48;;;;;;;0.70;0.50;;;12.70;99.90;;;;;;5487722;26;20511;-75
2024/04/16 05:20:14;;;;;;;1.77;0.60;;;12.70;99.90;;;;;;5487226;26;20026;-76
2024/04/16 05:22:43;;;;;;;0.95;0.40;;;12.70;99.90;;;;;;5490985;26;20025;-75
2024/04/16 05:25:09;;;;;;;1.05;0.57;;;12.70;99.90;;;;;;5491847;26;20034;-74
2024/04/16 05:27:35;;;;;;;1.30;0.60;;;12.60;99.90;;;;;;5491214;26;20460;-76
2024/04/16 05:30:01;;;;;;;4.00;0.68;;;12.60;99.90;;;;;;5491584;26;20037;-75
2024/04/16 05:32:28;;;;;;;1.25;0.50;;;12.60;99.90;;;;;;5491212;26;20030;-70
2024/04/16 05:34:54;;;;;;;1.27;0.60;;;12.60;99.90;;;;;;5491752;26;20026;-76
2024/04/16 05:37:20;;;;;;;1.30;0.50;;;12.60;99.90;;;;;;5488234;26;20030;-77
2024/04/16 05:39:46;;;;;;;1.00;0.57;;;12.60;99.90;;;;;;5487886;26;20363;-77
2024/04/16 05:42:12;;;;;;;3.60;0.50;;;12.60;99.90;;;;;;5488650;26;20033;-76
2024/04/16 05:44:39;;;;;;;1.42;0.57;;;12.60;99.90;;;;;;5487212;26;20065;-76
2024/04/16 05:47:05;;;;;;;1.45;0.40;;;12.70;99.90;;;;;;5487848;26;20026;-76
2024/04/16 05:49:31;;;;;;;1.30;0.40;;;12.60;99.90;;;;;;5490833;26;20030;-77
2024/04/16 05:51:58;;;;;;;0.52;0.30;;;12.70;99.90;;;;;;5491231;26;20030;-77
2024/04/16 05:54:24;;;;;;;3.58;0.40;;;12.60;99.90;;;;;;5491489;26;20022;-76
2024/04/16 05:56:51;;;;;;;1.00;0.40;;;12.50;99.90;;;;;;5490768;26;20030;-76
2024/04/16 05:59:19;;;;;;;4.88;0.40;;;12.50;99.90;;;;;;5491159;26;20030;-76
2024/04/16 06:01:45;;;;;;;0.52;0.30;;;12.50;99.90;;;;;;5491077;26;20039;-75
2024/04/16 06:04:11;;;;;;;1.00;0.45;;;12.50;99.90;;;;;;5488845;26;20031;-76
2024/04/16 06:06:37;;;;;;;0.43;0.40;;;12.50;99.90;;;;;;5491228;26;20030;-76
2024/04/16 06:09:04;;;;;;;0.65;0.32;;;12.50;99.90;;;;;;5488412;26;20030;-76
2024/04/16 06:11:31;;;;;;;1.38;0.50;;;12.50;99.90;;;;;;5490477;26;20026;-75
2024/04/16 06:13:58;;;;;;;1.45;0.50;;;12.40;99.90;;;;;;5491187;26;20029;-76
2024/04/16 06:16:26;;;;;;;0.60;0.30;;;12.40;99.90;;;;;;5490975;26;20030;-75
2024/04/16 06:18:52;;;;;;;0.93;0.50;;;12.40;99.90;;;;;;5490894;26;20035;-74
2024/04/16 06:21:18;;;;;;;0.68;0.40;;;12.40;99.90;;;;;;5491074;26;20034;-77
2024/04/16 06:23:46;;;;;;;2.88;0.40;;;12.30;99.90;;;;;;5491713;26;20029;-77
2024/04/16 06:26:13;;;;;;;1.10;0.38;;;12.20;99.90;;;;;;5490590;26;20022;-76
2024/04/16 06:28:39;;;;;;;1.63;0.40;;;12.20;99.90;;;;;;5491163;26;20034;-76
2024/04/16 06:31:06;;;;;;;0.98;0.40;;;12.20;99.90;;;;;;5490993;26;20030;-74
2024/04/16 06:33:36;;;;;;;1.05;0.40;;;12.20;99.90;;;;;;5490625;26;20492;-76
2024/04/16 06:36:05;;;;;;;1.40;0.30;;;12.10;99.90;;;;;;5490561;26;20042;-76
2024/04/16 06:38:32;;;;;;;0.70;0.20;;;12.10;99.90;;;;;;5486468;26;20493;-76
2024/04/16 06:41:01;;;;;;;0.32;0.20;;;12.10;99.90;;;;;;5490575;26;20385;-75
2024/04/16 06:43:28;;;;;;;2.00;0.30;;;12.10;99.90;;;;;;5491481;26;20018;-75
2024/04/16 06:45:58;;;;;;;0.45;0.20;;;12.00;99.90;;;;;;5491669;26;20026;-76
2024/04/16 06:48:24;;;;;;;2.15;0.30;;;12.00;99.90;;;;;;5491633;26;20035;-76
2024/04/16 06:50:50;;;;;;;1.63;0.30;;;11.90;99.90;;;;;;5491300;26;20372;-75
2024/04/16 06:53:17;;;;;;;1.17;0.20;;;11.80;99.90;;;;;;5491596;26;20022;-76
2024/04/16 06:55:43;;;;;;;2.13;0.30;;;11.80;99.90;;;;;;5489898;26;20022;-76
2024/04/16 06:58:10;;;;;;;0.60;0.30;;;11.80;99.90;;;;;;5525738;26;20018;-76
2024/04/16 07:00:37;;;;;;;2.50;0.40;;;11.70;99.90;;;;;;5528723;26;20022;-75
2024/04/16 07:03:03;;;;;;;0.50;0.30;;;11.60;99.90;;;;;;5526751;26;20017;-74
2024/04/16 07:05:29;;;;;;;0.57;0.28;;;11.60;99.90;;;;;;5457476;26;20058;-76
2024/04/16 07:07:55;;;;;;;1.52;0.30;;;11.50;99.90;;;;;;5454726;26;20489;-77
2024/04/16 07:10:22;;;;;;;1.65;0.40;;;11.50;99.90;;;;;;5458874;26;20027;-76
2024/04/16 07:12:48;;;;;;;0.38;0.22;;;11.30;99.90;;;;;;5456052;26;20039;-76
2024/04/16 07:15:14;;;;;;;0.73;0.20;;;11.20;99.90;;;;;;5490323;26;20026;-76
2024/04/16 07:17:40;;;;;;;2.67;0.28;;;11.20;99.90;;;;;;5489929;26;20034;-76
2024/04/16 07:20:08;;;;;;;0.25;0.20;;;11.20;99.90;;;;;;5486678;26;20019;-77
2024/04/16 07:22:35;;;;;;;0.28;0.20;;;11.10;99.90;;;;;;5487551;26;20030;-77
2024/04/16 07:25:01;;;;;;;0.17;0.17;;;10.90;99.90;;;;;;5487580;26;20026;-76
2024/04/16 07:27:27;;;;;;;0.70;0.28;;;10.80;99.90;;;;;;5486079;26;20051;-77
2024/04/16 07:29:53;;;;;;;0.93;0.30;;;10.60;99.90;;;;;;5487056;26;20022;-77
2024/04/16 07:32:20;;;;;;;0.55;0.38;;;10.50;99.90;;;;;;5485855;26;20021;-77
2024/04/16 07:34:46;;;;;;;1.05;0.45;;;10.30;99.90;;;;;;5490106;26;20015;-77
2024/04/16 07:37:12;;;;;;;0.93;0.40;;;10.20;99.90;;;;;;5489185;26;20033;-77
2024/04/16 07:39:38;;;;;;;0.73;0.40;;;10.10;99.90;;;;;;5488313;26;20018;-77
2024/04/16 07:42:04;;;;;;;0.85;0.38;;;10.10;99.90;;;;;;5487744;26;20468;-76
2024/04/16 07:44:30;;;;;;;0.60;0.30;;;9.90;99.90;;;;;;5484410;26;20029;-76
2024/04/16 07:46:59;;;;;;;1.02;0.40;;;9.90;99.90;;;;;;5487231;26;20018;-77
2024/04/16 07:49:25;;;;;;;0.22;0.20;;;9.80;99.90;;;;;;5485277;26;20379;-77
2024/04/16 07:51:51;;;;;;;0.38;0.38;;;9.90;99.90;;;;;;5485462;26;20025;-77
2024/04/16 07:54:17;;;;;;;1.17;0.50;;;9.80;99.90;;;;;;5489156;26;20018;-76
2024/04/16 07:56:44;;;;;;;1.20;0.52;;;9.80;99.90;;;;;;5490919;26;20022;-77
2024/04/16 07:59:10;;;;;;;0.40;0.40;;;9.70;99.90;;;;;;5490710;26;20018;-76
2024/04/16 08:01:36;;;;;;;2.15;0.38;;;9.50;99.90;;;;;;5491029;26;20015;-77
2024/04/16 08:04:02;;;;;;;1.35;0.40;;;9.30;99.90;;;;;;5490706;26;20021;-76
2024/04/16 08:06:28;;;;;;;0.77;0.50;;;9.40;99.90;;;;;;5490988;26;20018;-76
2024/04/16 08:08:56;;;;;;;0.47;0.45;;;9.30;99.90;;;;;;5490233;26;20037;-76
2024/04/16 08:11:22;;;;;;;1.33;0.50;;;9.00;99.90;;;;;;5490234;26;20018;-77
2024/04/16 08:13:50;;;;;;;0.75;0.40;;;9.00;99.90;;;;;;5490658;26;20018;-77
2024/04/16 08:16:16;;;;;;;2.03;0.70;;;9.00;99.90;;;;;;5490515;26;20025;-77
2024/04/16 08:18:42;;;;;;;0.50;0.30;;;9.10;99.90;;;;;;5490835;26;20027;-77
2024/04/16 08:21:08;;;;;;;0.82;0.50;;;9.10;99.90;;;;;;5490295;26;20018;-77
2024/04/16 08:23:35;;;;;;;2.67;0.47;;;9.10;99.90;;;;;;5488852;26;20026;-77
2024/04/16 08:26:02;;;;;;;1.52;0.60;;;9.10;99.90;;;;;;5490283;26;20030;-76
2024/04/16 08:28:30;;;;;;;1.98;0.45;;;9.00;99.90;;;;;;5490504;26;20021;-77
2024/04/16 08:31:02;;;;;;;0.68;0.47;;;9.00;99.90;;;;;;5489006;26;20027;-77
2024/04/16 08:33:28;;;;;;;0.75;0.68;;;8.90;99.90;;;;;;5490339;26;20357;-77
2024/04/16 08:35:56;;;;;;;0.68;0.40;;;8.70;99.90;;;;;;5490188;26;20019;-77
2024/04/16 08:38:22;;;;;;;0.45;0.40;;;8.60;99.90;;;;;;5490150;26;20027;-76
2024/04/16 08:40:49;;;;;;;1.55;0.60;;;8.50;99.90;;;;;;5488536;26;20014;-76
2024/04/16 08:43:15;;;;;;;1.50;0.60;;;8.50;99.90;;;;;;5490073;26;20018;-76
2024/04/16 08:45:43;;;;;;;1.73;0.68;;;8.70;99.90;;;;;;5490099;26;20472;-76
2024/04/16 08:48:09;;;;;;;0.40;0.40;;;8.80;99.90;;;;;;5490218;26;20014;-76
2024/04/16 08:50:36;;;;;;;2.65;0.52;;;8.80;99.90;;;;;;5489855;26;20022;-76
2024/04/16 08:53:03;;;;;;;1.23;0.80;;;8.70;99.90;;;;;;5489998;26;20018;-76
2024/04/16 08:55:35;;;;;;;0.75;0.70;;;8.60;99.90;;;;;;5489906;26;20018;-76
2024/04/16 08:58:02;;;;;;;2.05;0.95;;;8.60;99.90;;;;;;5493119;26;20387;-75
2024/04/16 09:00:28;;;;;;;1.15;0.63;;;8.70;99.90;;;;;;5493572;26;20451;-77
2024/04/16 09:02:54;;;;;;;3.60;1.20;;;8.60;99.90;;;;;;5491351;26;20022;-76
2024/04/16 09:05:21;;;;;;;1.60;0.70;;;8.70;99.90;;;;;;5493393;26;20045;-77
2024/04/16 09:07:47;;;;;;;1.45;0.80;;;8.70;99.90;;;;;;5493326;26;20018;-76
2024/04/16 09:10:15;;;;;;;2.25;1.02;;;8.70;99.90;;;;;;5493460;26;20366;-76
2024/04/16 09:12:43;;;;;;;1.33;1.00;;;8.80;99.90;;;;;;5493385;26;20504;-76
2024/04/16 09:15:13;;;;;;;2.47;1.08;;;8.70;99.90;;;;;;5493258;26;20018;-77
2024/04/16 09:18:08;;;;;;;2.15;0.90;;;8.90;99.90;;;;;;5493117;26;20018;-76
2024/04/16 09:20:34;;;;;;;1.42;0.93;;;8.90;99.90;;;;;;5462403;26;20022;-76
2024/04/16 09:23:01;;;;;;;0.70;0.70;;;8.90;99.90;;;;;;5493279;26;20014;-76
2024/04/16 09:25:28;;;;;;;2.05;0.90;;;8.80;99.90;;;;;;5493312;26;20014;-76
2024/04/16 09:27:56;;;;;;;1.95;0.90;;;8.80;99.90;;;;;;5492676;26;20355;-76
2024/04/16 09:30:23;;;;;;;1.77;1.20;;;8.80;99.90;;;;;;5492987;26;20492;-76
2024/04/16 09:33:01;;;;;;;1.52;0.80;;;8.70;99.90;;;;;;5492993;26;20033;-75
2024/04/16 09:35:29;;;;;;;1.20;0.80;;;8.70;99.90;;;;;;5490388;26;20026;-75
2024/04/16 09:38:06;;;;;;;1.35;0.85;;;8.70;99.90;;;;;;5492954;26;20022;-74
2024/04/16 09:40:34;;;;;;;1.23;0.60;;;8.60;99.90;;;;;;5491473;26;20014;-76
2024/04/16 09:43:02;;;;;;;2.25;0.82;;;8.50;99.90;;;;;;5492710;26;20022;-76
2024/04/16 09:45:29;;;;;;;5.40;1.10;;;8.50;99.90;;;;;;5492735;26;20027;-76
2024/04/16 09:47:59;;;;;;;0.93;0.80;;;8.50;99.90;;;;;;5490894;26;20030;-76
2024/04/16 09:50:26;;;;;;;1.90;0.80;;;8.60;99.90;;;;;;5492759;26;20014;-76
2024/04/16 09:52:55;;;;;;;1.27;0.77;;;8.60;99.90;;;;;;5492899;26;20025;-75
2024/04/16 09:55:25;;;;;;;1.10;0.70;;;8.70;99.90;;;;;;5492603;26;20018;-76
2024/04/16 09:57:54;;;;;;;3.10;0.90;;;8.70;99.90;;;;;;5492710;26;20015;-76
2024/04/16 10:00:20;;;;;;;1.38;0.90;;;8.70;99.90;;;;;;5492723;26;20018;-76
2024/04/16 10:02:47;;;;;;;3.45;1.23;;;8.80;99.90;;;;;;5492654;26;20018;-76
2024/04/16 10:05:14;;;;;;;1.85;0.80;;;8.80;99.90;;;;;;5492770;26;20022;-76
2024/04/16 10:07:44;;;;;;;0.98;0.60;;;8.80;99.90;;;;;;5492129;26;20014;-76
2024/04/16 10:10:11;;;;;;;1.67;0.73;;;8.80;99.90;;;;;;5492619;26;20026;-76
2024/04/16 10:12:37;;;;;;;1.77;0.82;;;8.80;99.90;;;;;;5490726;26;20030;-75
2024/04/16 10:15:06;;;;;;;1.60;0.70;;;8.80;99.90;;;;;;5492434;26;20022;-77
2024/04/16 10:17:32;;;;;;;1.10;0.57;;;8.70;99.90;;;;;;5492260;26;20018;-76
2024/04/16 10:20:11;;;;;;;1.63;0.60;;;8.60;99.90;;;;;;5490638;26;20026;-76
2024/04/16 10:22:38;;;;;;;1.40;0.63;;;8.40;99.90;;;;;;5490759;26;20014;-76
2024/04/16 10:25:04;;;;;;;0.82;0.70;;;8.30;99.90;;;;;;5489795;26;20018;-76
2024/04/16 10:27:31;;;;;;;0.75;0.60;;;8.30;99.90;;;;;;5492375;26;20094;-77
2024/04/16 10:30:10;;;;;;;1.10;0.68;;;8.40;99.90;;;;;;5492439;26;20023;-76
2024/04/16 10:32:44;;;;;;;1.63;0.80;;;8.50;99.90;;;;;;5492051;26;20014;-76
2024/04/16 10:35:10;;;;;;;;;;;8.50;99.90;;;;;;5492610;26;20456;-76
2024/04/16 10:37:37;;;;;;;1.88;0.80;;;8.40;99.90;;;;;;5492099;26;19953;-76
2024/04/16 10:40:03;;;;;;;1.60;0.50;;;8.40;99.90;;;;;;5491910;26;20027;-76
2024/04/16 10:42:29;;;;;;;2.53;1.00;;;8.40;99.90;;;;;;5484240;26;20038;-76
2024/04/16 10:45:00;;;;;;;0.95;0.65;;;8.50;99.90;;;;;;5489040;26;20034;-76
2024/04/16 10:47:27;;;;;;;2.33;0.80;;;8.40;99.90;;;;;;5491291;26;20046;-76
2024/04/16 10:49:53;;;;;;;1.15;0.70;;;8.50;99.90;;;;;;5490943;26;20039;-76
2024/04/16 10:52:20;;;;;;;1.63;0.80;;;8.50;99.90;;;;;;5488766;26;20026;-76
2024/04/16 10:54:52;;;;;;;1.58;0.90;;;8.60;99.90;;;;;;5488011;26;20038;-76
2024/04/16 10:57:19;;;;;;;2.42;0.70;;;8.70;99.90;;;;;;5488745;26;20034;-76
2024/04/16 10:59:45;;;;;;;2.35;0.90;;;8.70;99.90;;;;;;5488338;26;20026;-76
2024/04/16 11:02:12;;;;;;;1.02;0.70;;;8.70;99.90;;;;;;5490945;26;20030;-76
2024/04/16 11:04:38;;;;;;;1.70;0.77;;;8.80;99.90;;;;;;5491206;26;20035;-76
2024/04/16 11:07:05;;;;;;;1.38;0.50;;;8.80;99.90;;;;;;5486067;26;20381;-76
2024/04/16 11:09:32;;;;;;;1.40;0.70;;;8.80;99.90;;;;;;5488833;26;20057;-76
2024/04/16 11:12:00;;;;;;;1.30;0.80;;;8.80;99.90;;;;;;5487600;26;20026;-76
2024/04/16 11:14:27;;;;;;;0.85;0.60;;;8.80;99.90;;;;;;5486673;26;20022;-76
2024/04/16 11:16:54;;;;;;;3.42;0.75;;;8.90;99.90;;;;;;5486983;26;20473;-77
2024/04/16 11:19:21;;;;;;;3.30;0.60;;;8.90;99.90;;;;;;5486216;26;20076;-77
2024/04/16 11:21:48;;;;;;;0.80;0.60;;;9.00;99.90;;;;;;5488559;26;20018;-76
2024/04/16 11:24:14;;;;;;;0.45;0.45;;;9.00;99.90;;;;;;5488310;26;20022;-76
2024/04/16 11:26:40;;;;;;;1.65;0.73;;;9.00;99.90;;;;;;5488868;26;20025;-77
2024/04/16 11:29:07;;;;;;;1.23;0.80;;;9.10;99.90;;;;;;5489994;26;20026;-76
2024/04/16 11:31:33;;;;;;;1.23;0.70;;;9.10;99.90;;;;;;5490474;26;20025;-77
2024/04/16 11:33:59;;;;;;;2.00;0.60;;;9.10;99.90;;;;;;5483736;26;20022;-77
2024/04/16 11:36:26;;;;;;;1.17;0.47;;;9.10;99.90;;;;;;5484827;26;20041;-77
2024/04/16 11:38:53;;;;;;;2.50;0.80;;;9.10;99.90;;;;;;5485483;26;20037;-74
2024/04/16 11:41:19;;;;;;;1.20;0.85;;;9.00;99.90;;;;;;5484510;26;20069;-76
2024/04/16 11:43:46;;;;;;;1.65;0.80;;;9.10;99.90;;;;;;5484788;26;20380;-76
2024/04/16 11:46:14;;;;;;;0.63;0.50;;;9.00;99.90;;;;;;5486510;26;20037;-76
2024/04/16 11:48:44;;;;;;;1.63;0.88;;;9.10;99.90;;;;;;5486615;26;20022;-77
2024/04/16 11:51:11;;;;;;;1.23;0.73;;;9.00;99.90;;;;;;5484673;26;20034;-77
2024/04/16 11:53:38;;;;;;;2.53;1.00;;;9.00;99.90;;;;;;5484005;26;20368;-76
2024/04/16 11:56:08;;;;;;;2.17;0.90;;;8.90;99.90;;;;;;5487085;26;20026;-76
2024/04/16 11:58:34;;;;;;;1.40;0.80;;;8.80;99.90;;;;;;5488486;26;20022;-76
2024/04/16 12:01:01;;;;;;;2.13;0.88;;;8.80;99.90;;;;;;5489762;26;20374;-77
2024/04/16 12:03:27;;;;;;;1.90;0.98;;;8.70;99.90;;;;;;5490153;26;20022;-76
2024/04/16 12:05:53;;;;;;;1.98;0.80;;;8.60;99.90;;;;;;5490017;26;20135;-76
2024/04/16 12:08:20;;;;;;;2.17;0.90;;;8.70;99.90;;;;;;5487616;26;20492;-77
2024/04/16 12:10:46;;;;;;;1.75;1.10;;;8.60;99.90;;;;;;5489997;26;20373;-77
2024/04/16 12:13:13;;;;;;;0.93;0.70;;;8.70;99.90;;;;;;5490044;26;20078;-77
2024/04/16 12:15:39;;;;;;;1.15;0.90;;;8.60;99.90;;;;;;5489918;26;20026;-76
2024/04/16 12:18:05;;;;;;;2.67;0.90;;;8.60;99.90;;;;;;5488104;26;20025;-77
2024/04/16 12:20:31;;;;;;;1.35;0.70;;;8.70;99.90;;;;;;5490056;26;20518;-76
2024/04/16 12:22:58;;;;;;;1.77;0.90;;;8.60;99.90;;;;;;5489473;26;20034;-76
2024/04/16 12:25:24;;;;;;;3.78;0.82;;;8.60;99.90;;;;;;5490042;26;20029;-76
2024/04/16 12:27:50;;;;;;;2.80;1.40;;;8.70;99.90;;;;;;5489729;26;20030;-76
2024/04/16 12:30:16;;;;;;;3.20;0.88;;;8.80;99.90;;;;;;5489727;26;20026;-76
2024/04/16 12:32:42;;;;;;;1.20;0.60;;;8.90;99.90;;;;;;5489808;26;20022;-76
2024/04/16 12:35:08;;;;;;;2.15;0.80;;;8.90;99.90;;;;;;5488569;26;20038;-76
2024/04/16 12:37:34;;;;;;;0.77;0.50;;;9.00;99.90;;;;;;5488578;26;20038;-76
2024/04/16 12:40:00;;;;;;;2.28;0.88;;;9.10;99.90;;;;;;5489774;26;20025;-76
2024/04/16 12:42:27;;;;;;;1.30;0.80;;;9.20;99.90;;;;;;5489672;26;20022;-77
2024/04/16 12:44:53;;;;;;;1.45;0.70;;;9.20;99.90;;;;;;5489800;26;20035;-76
2024/04/16 12:47:19;;;;;;;3.40;1.10;;;9.20;99.90;;;;;;5489419;26;20035;-77
2024/04/16 12:49:45;;;;;;;3.47;1.40;;;9.20;99.90;;;;;;5489639;26;20022;-77